Time;durP1;ratioP1;P1;durP2;ratioP2;P2;SDS_P1;SDS_P2;PMS_P1;PMS_P2;Temp;Humidity;BMP_temperature;BMP_pressure;BME280_temperature;BME280_humidity;BME280_pressure;Samples;Min_cycle;Max_cycle;Signal;HPM_P1;HPM_P2
2021/10/27 00:00:44;;;;;;;7.90;5.88;;;11.10;90.50;;;;;;4973433;28;20038;-85
2021/10/27 00:03:10;;;;;;;10.98;6.45;;;11.00;89.50;;;;;;4973450;28;20061;-84
2021/10/27 00:05:36;;;;;;;11.60;6.50;;;10.90;89.40;;;;;;4972350;28;20421;-84
2021/10/27 00:08:01;;;;;;;8.77;6.18;;;10.90;89.70;;;;;;4973417;28;20049;-82
2021/10/27 00:10:27;;;;;;;9.73;6.15;;;10.90;90.30;;;;;;4972720;28;20486;-83
2021/10/27 00:12:53;;;;;;;10.88;6.47;;;10.90;90.10;;;;;;4973026;28;20033;-83
2021/10/27 00:15:19;;;;;;;11.45;6.18;;;10.80;90.70;;;;;;4970279;28;20033;-86
2021/10/27 00:17:45;;;;;;;9.18;5.75;;;10.90;90.70;;;;;;4972722;28;20074;-88
2021/10/27 00:20:11;;;;;;;8.48;5.93;;;11.00;90.70;;;;;;4972944;28;20203;-84
2021/10/27 00:22:39;;;;;;;12.15;5.78;;;11.00;90.60;;;;;;4988909;28;20055;-85
2021/10/27 00:25:06;;;;;;;12.82;6.00;;;11.10;90.30;;;;;;4972310;28;20520;-86
2021/10/27 00:27:32;;;;;;;8.00;5.63;;;11.10;90.70;;;;;;4974127;28;20078;-86
2021/10/27 00:29:58;;;;;;;9.52;6.18;;;11.10;90.60;;;;;;4973608;28;20106;-86
2021/10/27 00:32:23;;;;;;;7.47;5.25;;;11.20;90.70;;;;;;4972620;28;20058;-85
2021/10/27 00:34:49;;;;;;;12.13;5.70;;;11.20;90.50;;;;;;4967168;28;20382;-85
2021/10/27 00:37:15;;;;;;;12.32;6.55;;;11.30;90.00;;;;;;4975255;28;20027;-85
2021/10/27 00:39:41;;;;;;;9.23;6.22;;;11.50;89.20;;;;;;4977412;28;20306;-84
2021/10/27 00:42:07;;;;;;;8.90;5.93;;;11.40;90.00;;;;;;4961246;28;20018;-86
2021/10/27 00:44:33;;;;;;;10.23;5.88;;;11.40;89.90;;;;;;4971278;28;20042;-85
2021/10/27 00:47:07;;;;;;;9.90;5.60;;;11.60;89.40;;;;;;4991972;28;20035;-86
2021/10/27 00:49:35;;;;;;;12.10;5.75;;;11.70;88.60;;;;;;4976416;28;20082;-85
2021/10/27 00:52:04;;;;;;;9.52;5.72;;;11.80;88.60;;;;;;4966595;28;20034;-84
2021/10/27 00:54:31;;;;;;;9.80;5.53;;;12.10;87.00;;;;;;4965762;28;20022;-86
2021/10/27 00:56:58;;;;;;;7.70;5.72;;;12.20;87.00;;;;;;4957835;28;20629;-86
2021/10/27 00:59:24;;;;;;;7.45;5.20;;;12.10;87.10;;;;;;4972267;28;20035;-86
2021/10/27 01:01:51;;;;;;;10.43;5.75;;;12.00;87.90;;;;;;4974879;28;20037;-86
2021/10/27 01:04:17;;;;;;;8.13;5.78;;;11.90;87.80;;;;;;4975671;28;20557;-86
2021/10/27 01:06:44;;;;;;;8.15;5.25;;;11.80;88.40;;;;;;4975147;28;20118;-86
2021/10/27 01:09:10;;;;;;;12.82;6.00;;;11.90;87.90;;;;;;4976501;28;20035;-86
2021/10/27 01:11:36;;;;;;;8.93;5.95;;;12.00;87.80;;;;;;4976712;28;20081;-87
2021/10/27 01:14:09;;;;;;;8.30;5.68;;;12.00;87.70;;;;;;4991721;28;20038;-85
2021/10/27 01:16:35;;;;;;;10.82;5.28;;;12.00;87.50;;;;;;4973487;28;20189;-86
2021/10/27 01:19:02;;;;;;;7.97;5.63;;;12.10;87.40;;;;;;4973481;28;20532;-86
2021/10/27 01:21:31;;;;;;;9.60;5.80;;;12.10;86.90;;;;;;4972097;28;20063;-86
2021/10/27 01:24:00;;;;;;;7.30;5.53;;;12.20;87.30;;;;;;4966288;28;20023;-84
2021/10/27 01:26:27;;;;;;;10.63;5.68;;;12.10;87.50;;;;;;4976391;28;20101;-85
2021/10/27 01:28:53;;;;;;;7.78;5.30;;;12.10;87.50;;;;;;4991028;28;20117;-85
2021/10/27 01:31:20;;;;;;;8.77;6.00;;;12.00;88.20;;;;;;4974936;28;20038;-84
2021/10/27 01:33:46;;;;;;;7.78;5.03;;;11.80;88.70;;;;;;4975819;28;20030;-85
2021/10/27 01:36:16;;;;;;;8.38;5.45;;;11.80;88.60;;;;;;4975948;28;20027;-85
2021/10/27 01:38:42;;;;;;;9.77;5.80;;;11.80;88.90;;;;;;4975712;28;20053;-85
2021/10/27 01:41:08;;;;;;;9.85;5.43;;;11.80;89.30;;;;;;4975410;28;20101;-85
2021/10/27 01:43:55;;;;;;;8.93;5.20;;;11.90;89.20;;;;;;4975492;28;20050;-84
2021/10/27 01:46:32;;;;;;;6.10;4.88;;;11.90;89.70;;;;;;4974530;28;20019;-84
2021/10/27 01:48:59;;;;;;;8.93;5.75;;;11.80;90.10;;;;;;4975559;28;20022;-85
2021/10/27 01:51:28;;;;;;;9.05;5.15;;;11.70;90.00;;;;;;4975182;28;20482;-84
2021/10/27 01:53:55;;;;;;;12.43;5.93;;;11.70;90.70;;;;;;4973699;28;20050;-84
2021/10/27 01:56:23;;;;;;;10.18;5.57;;;11.60;90.40;;;;;;4974440;28;20023;-84
2021/10/27 01:58:50;;;;;;;7.65;5.65;;;11.50;90.60;;;;;;4975378;28;20034;-85
2021/10/27 02:01:16;;;;;;;7.07;5.10;;;11.40;90.80;;;;;;4974756;28;20025;-84
2021/10/27 02:03:42;;;;;;;8.98;5.57;;;11.30;91.40;;;;;;4975168;28;20038;-84
2021/10/27 02:06:10;;;;;;;9.32;5.05;;;11.40;91.10;;;;;;4975013;28;20513;-84
2021/10/27 02:08:35;;;;;;;7.93;5.28;;;11.50;91.00;;;;;;4972289;28;20553;-85
2021/10/27 02:11:02;;;;;;;7.80;5.50;;;11.60;91.00;;;;;;4973566;28;20023;-83
2021/10/27 02:13:28;;;;;;;7.97;5.40;;;11.70;91.00;;;;;;4975444;28;20019;-86
2021/10/27 02:15:54;;;;;;;9.02;5.03;;;11.70;91.00;;;;;;4975274;28;20050;-86
2021/10/27 02:18:20;;;;;;;9.32;5.63;;;11.60;91.10;;;;;;4974970;28;20039;-85
2021/10/27 02:20:46;;;;;;;7.60;5.10;;;11.50;91.40;;;;;;4971078;28;20035;-86
2021/10/27 02:23:13;;;;;;;6.65;5.13;;;11.60;91.00;;;;;;4957695;28;20024;-86
2021/10/27 02:25:39;;;;;;;9.55;5.63;;;11.80;90.70;;;;;;4975232;28;20105;-86
2021/10/27 02:28:04;;;;;;;12.32;5.50;;;11.90;90.70;;;;;;4974824;28;20074;-86
2021/10/27 02:30:30;;;;;;;8.85;5.32;;;11.90;90.50;;;;;;4974732;28;20038;-85
2021/10/27 02:32:56;;;;;;;10.85;4.72;;;11.90;90.30;;;;;;4974103;28;20046;-85
2021/10/27 02:35:22;;;;;;;8.82;5.60;;;12.00;90.40;;;;;;4975347;28;20030;-86
2021/10/27 02:37:48;;;;;;;6.80;5.00;;;12.00;90.60;;;;;;4975855;28;20049;-88
2021/10/27 02:40:14;;;;;;;6.68;4.65;;;11.80;90.50;;;;;;4975053;28;20046;-86
2021/10/27 02:42:41;;;;;;;8.50;5.75;;;11.90;90.40;;;;;;4975276;28;20026;-85
2021/10/27 02:45:12;;;;;;;7.47;5.13;;;12.00;90.40;;;;;;4975024;28;20134;-85
2021/10/27 02:47:38;;;;;;;7.30;5.32;;;11.90;90.60;;;;;;4954715;28;20078;-86
2021/10/27 02:50:05;;;;;;;7.68;5.40;;;11.90;90.40;;;;;;4972046;28;20544;-85
2021/10/27 02:52:31;;;;;;;8.15;5.35;;;11.90;90.50;;;;;;4975184;28;20054;-85
2021/10/27 02:54:58;;;;;;;6.80;5.53;;;11.90;90.70;;;;;;4971914;28;20027;-85
2021/10/27 02:57:24;;;;;;;8.15;5.45;;;11.90;90.80;;;;;;4974500;28;20019;-85
2021/10/27 02:59:50;;;;;;;11.20;5.00;;;11.80;91.10;;;;;;4974362;28;20093;-86
2021/10/27 03:02:16;;;;;;;10.82;5.18;;;11.80;91.30;;;;;;4974447;28;20022;-85
2021/10/27 03:04:42;;;;;;;10.30;5.95;;;11.70;91.40;;;;;;4972928;28;20549;-83
2021/10/27 03:07:08;;;;;;;9.05;5.88;;;11.70;91.30;;;;;;4979805;28;20023;-86
2021/10/27 03:09:33;;;;;;;8.68;5.75;;;11.70;91.40;;;;;;4989570;28;20030;-86
2021/10/27 03:11:59;;;;;;;8.95;6.10;;;11.80;91.10;;;;;;4967392;28;20028;-87
2021/10/27 03:14:26;;;;;;;10.63;6.03;;;11.80;91.20;;;;;;4961930;28;20085;-84
2021/10/27 03:16:52;;;;;;;8.65;5.80;;;11.70;91.40;;;;;;4974086;28;20022;-84
2021/10/27 03:19:17;;;;;;;7.18;5.63;;;11.70;91.30;;;;;;4973114;28;20122;-85
2021/10/27 03:21:43;;;;;;;8.52;5.72;;;11.70;91.30;;;;;;4974195;28;20034;-84
2021/10/27 03:24:09;;;;;;;11.82;5.72;;;11.60;91.50;;;;;;4964169;28;20201;-84
2021/10/27 03:26:35;;;;;;;8.98;5.63;;;11.50;91.60;;;;;;4978316;28;20023;-85
2021/10/27 03:29:00;;;;;;;10.65;6.20;;;11.50;92.00;;;;;;4966116;28;20062;-85
2021/10/27 03:31:26;;;;;;;9.65;5.68;;;11.40;91.80;;;;;;4973372;28;20031;-84
2021/10/27 03:33:52;;;;;;;8.10;5.85;;;11.40;92.00;;;;;;4973249;28;20027;-85
2021/10/27 03:36:18;;;;;;;11.45;5.75;;;11.30;92.20;;;;;;4973017;28;20042;-86
2021/10/27 03:38:43;;;;;;;7.68;5.90;;;11.30;92.10;;;;;;4973484;28;20042;-85
2021/10/27 03:41:09;;;;;;;8.38;5.65;;;11.20;92.40;;;;;;4973790;28;20486;-83
2021/10/27 03:43:35;;;;;;;10.05;5.97;;;11.20;92.80;;;;;;4972830;28;20047;-85
2021/10/27 03:46:01;;;;;;;6.88;5.55;;;11.60;92.20;;;;;;4988232;28;20449;-83
2021/10/27 03:48:27;;;;;;;8.23;5.80;;;11.70;92.10;;;;;;4959144;28;20109;-86
2021/10/27 03:50:52;;;;;;;8.10;6.03;;;11.80;91.90;;;;;;4974166;28;20023;-85
2021/10/27 03:53:18;;;;;;;9.25;6.38;;;11.90;91.70;;;;;;4972930;28;20394;-84
2021/10/27 03:55:45;;;;;;;11.07;6.00;;;11.80;91.90;;;;;;4972194;28;20547;-85
2021/10/27 03:58:11;;;;;;;7.88;5.85;;;11.70;92.30;;;;;;4972451;28;20073;-86
2021/10/27 04:00:39;;;;;;;8.98;5.60;;;11.50;92.90;;;;;;4989035;28;20118;-86
2021/10/27 04:03:05;;;;;;;14.15;6.30;;;11.40;93.20;;;;;;4982880;28;20508;-86
2021/10/27 04:05:31;;;;;;;8.10;6.22;;;11.50;93.60;;;;;;4973099;28;20474;-86
2021/10/27 04:07:57;;;;;;;7.75;6.15;;;11.50;93.50;;;;;;4971088;28;20065;-85
2021/10/27 04:10:23;;;;;;;7.65;5.68;;;11.50;93.10;;;;;;4975753;28;20069;-86
2021/10/27 04:12:48;;;;;;;8.13;5.80;;;11.60;93.30;;;;;;4974429;28;20057;-86
2021/10/27 04:15:14;;;;;;;11.23;6.07;;;11.50;93.70;;;;;;4969512;28;20023;-86
2021/10/27 04:17:40;;;;;;;10.35;5.97;;;11.50;93.60;;;;;;4977387;28;20038;-85
2021/10/27 04:20:09;;;;;;;7.20;5.25;;;11.60;93.60;;;;;;4979799;28;20046;-85
2021/10/27 04:22:37;;;;;;;7.57;5.38;;;11.70;93.50;;;;;;4957378;28;20026;-85
2021/10/27 04:25:04;;;;;;;8.52;6.05;;;11.70;93.40;;;;;;4973018;28;20027;-85
2021/10/27 04:27:31;;;;;;;14.95;6.05;;;11.70;93.50;;;;;;4978080;28;20026;-85
2021/10/27 04:29:57;;;;;;;7.80;5.65;;;11.80;93.30;;;;;;4975509;28;20050;-86
2021/10/27 04:32:22;;;;;;;11.18;6.13;;;11.70;93.60;;;;;;4975372;28;20620;-86
2021/10/27 04:34:48;;;;;;;8.55;5.80;;;11.70;93.90;;;;;;4974234;28;20027;-85
2021/10/27 04:37:16;;;;;;;6.47;5.30;;;11.70;93.70;;;;;;4973365;28;20019;-85
2021/10/27 04:39:42;;;;;;;8.63;5.60;;;11.70;94.40;;;;;;4973844;28;20034;-85
2021/10/27 04:42:07;;;;;;;9.93;5.65;;;11.60;93.90;;;;;;4976788;28;20033;-84
2021/10/27 04:44:33;;;;;;;6.97;5.65;;;11.60;94.20;;;;;;4976793;28;20070;-85
2021/10/27 04:47:03;;;;;;;13.55;5.85;;;11.70;94.10;;;;;;4976741;28;20113;-85
2021/10/27 04:49:29;;;;;;;12.32;5.82;;;11.70;93.80;;;;;;4976798;28;20029;-85
2021/10/27 04:51:55;;;;;;;8.77;6.25;;;11.90;93.60;;;;;;4968204;28;20037;-84
2021/10/27 04:54:21;;;;;;;9.90;6.00;;;11.80;93.70;;;;;;4976782;28;20122;-85
2021/10/27 04:56:48;;;;;;;7.78;5.63;;;11.70;94.10;;;;;;4976572;28;20109;-85
2021/10/27 04:59:14;;;;;;;11.07;5.80;;;11.70;94.20;;;;;;4971833;28;20122;-86
2021/10/27 05:01:41;;;;;;;12.75;5.65;;;11.60;94.50;;;;;;4969033;28;20464;-85
2021/10/27 05:04:07;;;;;;;8.93;5.32;;;11.60;95.10;;;;;;4974142;28;20580;-86
2021/10/27 05:06:34;;;;;;;12.13;6.20;;;11.60;94.70;;;;;;4965284;28;20027;-86
2021/10/27 05:09:00;;;;;;;7.10;5.75;;;11.60;94.70;;;;;;4973031;28;20054;-86
2021/10/27 05:11:26;;;;;;;12.73;5.70;;;11.70;94.20;;;;;;4984479;28;20066;-85
2021/10/27 05:13:52;;;;;;;8.73;5.70;;;11.90;93.80;;;;;;4975646;28;20035;-86
2021/10/27 05:16:18;;;;;;;11.68;6.03;;;11.90;94.00;;;;;;4975142;28;20547;-86
2021/10/27 05:18:44;;;;;;;8.63;5.72;;;11.90;94.50;;;;;;4970466;28;20118;-85
2021/10/27 05:21:10;;;;;;;8.93;6.32;;;11.90;94.20;;;;;;4973764;28;20030;-85
2021/10/27 05:23:35;;;;;;;9.82;5.75;;;12.10;93.80;;;;;;4975299;28;20018;-85
2021/10/27 05:26:02;;;;;;;7.80;5.50;;;12.00;93.80;;;;;;4975956;28;20058;-84
2021/10/27 05:28:28;;;;;;;9.65;5.57;;;11.90;94.10;;;;;;4976366;28;20047;-86
2021/10/27 05:30:54;;;;;;;10.30;5.65;;;11.80;94.30;;;;;;4975458;28;20066;-85
2021/10/27 05:33:19;;;;;;;14.00;6.28;;;11.90;94.40;;;;;;4974248;28;20105;-80
2021/10/27 05:35:45;;;;;;;15.48;6.53;;;12.10;94.00;;;;;;4973571;28;20031;-79
2021/10/27 05:38:11;;;;;;;11.02;5.60;;;12.40;93.60;;;;;;4973137;28;20030;-78
2021/10/27 05:40:37;;;;;;;12.25;6.13;;;12.30;93.40;;;;;;4972626;28;20169;-77
2021/10/27 05:43:10;;;;;;;11.07;7.80;;;12.20;93.90;;;;;;4968679;28;20049;-75
2021/10/27 05:45:37;;;;;;;8.68;5.45;;;12.00;94.50;;;;;;4969723;28;20127;-82
2021/10/27 05:48:05;;;;;;;10.38;6.00;;;11.90;94.90;;;;;;4971880;28;20030;-79
2021/10/27 05:55:41;;;;;;;25.25;6.55;;;11.80;95.30;;;;;;4976365;28;20597;-80
2021/10/27 05:58:11;;;;;;;9.40;6.35;;;11.90;95.10;;;;;;4972875;28;20113;-82
2021/10/27 06:00:37;;;;;;;10.30;6.97;;;11.90;94.80;;;;;;4972755;28;20031;-82
2021/10/27 06:03:03;;;;;;;8.05;6.35;;;12.00;94.60;;;;;;4974552;28;20034;-83
2021/10/27 06:05:30;;;;;;;10.13;6.55;;;12.00;94.80;;;;;;4995810;28;20030;-84
2021/10/27 06:07:56;;;;;;;12.07;6.45;;;12.00;95.10;;;;;;4976759;28;20045;-84
2021/10/27 06:10:23;;;;;;;11.77;7.82;;;12.00;95.20;;;;;;4973192;28;20034;-83
2021/10/27 06:12:52;;;;;;;9.93;6.90;;;11.90;95.40;;;;;;4975269;28;20034;-85
2021/10/27 06:15:19;;;;;;;11.55;6.75;;;11.90;95.20;;;;;;4975286;28;20529;-84
2021/10/27 06:17:46;;;;;;;13.95;7.22;;;11.90;95.90;;;;;;4974573;28;20101;-84
2021/10/27 06:20:12;;;;;;;14.40;7.45;;;11.80;95.60;;;;;;4988295;28;20042;-81
2021/10/27 06:22:39;;;;;;;12.95;6.90;;;11.90;95.50;;;;;;4974654;28;20030;-84
2021/10/27 06:25:08;;;;;;;10.70;7.25;;;12.00;95.30;;;;;;4979338;28;20040;-81
2021/10/27 06:27:34;;;;;;;9.25;7.00;;;12.20;95.30;;;;;;4984965;28;20025;-82
2021/10/27 06:30:14;;;;;;;15.45;7.53;;;12.20;95.60;;;;;;4975370;28;20026;-83
2021/10/27 06:32:49;;;;;;;20.48;7.35;;;12.20;95.70;;;;;;4954805;28;20057;-83
2021/10/27 06:38:26;;;;;;;30.10;13.25;;;12.40;95.30;;;;;;4955273;28;20034;-83
2021/10/27 06:46:38;;;;;;;13.45;7.38;;;12.60;94.20;;;;;;4974088;28;20050;-84
2021/10/27 06:49:04;;;;;;;11.32;7.53;;;12.60;94.30;;;;;;4973103;28;20022;-83
2021/10/27 06:51:30;;;;;;;10.93;6.82;;;12.60;94.00;;;;;;4971471;28;20429;-83
2021/10/27 06:53:56;;;;;;;11.10;7.32;;;12.70;94.40;;;;;;4970853;28;20019;-83
2021/10/27 06:56:23;;;;;;;11.10;7.70;;;12.80;94.60;;;;;;4970697;28;20759;-85
2021/10/27 07:01:29;;;;;;;11.25;7.15;;;12.90;95.00;;;;;;4970857;28;20022;-83
2021/10/27 07:17:35;;;;;;;11.80;7.43;;;13.30;94.40;;;;;;4970957;28;20551;-83
2021/10/27 07:20:04;;;;;;;14.00;7.45;;;13.40;93.20;;;;;;4971049;28;20061;-82
2021/10/27 07:22:30;;;;;;;13.70;6.75;;;13.40;93.00;;;;;;4971345;28;20023;-83
2021/10/27 07:24:57;;;;;;;10.23;7.15;;;13.60;93.60;;;;;;4970453;28;20386;-82
2021/10/27 07:27:24;;;;;;;10.68;6.40;;;13.70;92.50;;;;;;4971270;28;20027;-84
2021/10/27 07:29:50;;;;;;;9.73;7.22;;;13.90;93.10;;;;;;4985484;28;20081;-82
2021/10/27 07:32:17;;;;;;;12.35;6.65;;;13.90;93.80;;;;;;4971179;28;20022;-82
2021/10/27 07:43:02;;;;;;;8.15;5.43;;;14.30;91.10;;;;;;4952398;28;20454;-84
2021/10/27 07:45:31;;;;;;;9.52;5.85;;;14.40;91.80;;;;;;4970735;28;20069;-84
2021/10/27 07:47:57;;;;;;;8.35;5.15;;;14.50;91.30;;;;;;4971483;28;20478;-84
2021/10/27 07:50:27;;;;;;;11.25;6.60;;;14.50;91.10;;;;;;4969976;28;20085;-84
2021/10/27 07:52:54;;;;;;;7.43;5.88;;;14.60;90.80;;;;;;4972251;28;20066;-84
2021/10/27 07:55:20;;;;;;;8.70;6.07;;;14.70;90.60;;;;;;4974372;28;20417;-84
2021/10/27 07:57:49;;;;;;;9.57;5.88;;;14.70;90.60;;;;;;4973805;28;20027;-83
2021/10/27 08:00:16;;;;;;;11.38;6.18;;;14.80;91.10;;;;;;4974143;28;20118;-83
2021/10/27 08:02:49;;;;;;;12.80;6.05;;;14.80;91.10;;;;;;4973633;28;20084;-82
2021/10/27 08:05:16;;;;;;;8.02;5.82;;;14.80;90.30;;;;;;4974456;28;20023;-83
2021/10/27 08:07:48;;;;;;;6.95;5.60;;;14.80;90.80;;;;;;4975455;28;20023;-84
2021/10/27 08:10:15;;;;;;;6.90;5.18;;;14.90;91.50;;;;;;4975027;28;20101;-83
2021/10/27 08:12:42;;;;;;;15.50;5.40;;;14.90;90.80;;;;;;4975194;28;20429;-82
2021/10/27 08:15:09;;;;;;;7.40;5.40;;;14.90;91.30;;;;;;4974019;28;20520;-82
2021/10/27 08:17:36;;;;;;;17.08;5.63;;;15.20;91.00;;;;;;4974988;28;20433;-82
2021/10/27 08:20:04;;;;;;;8.50;5.47;;;15.30;90.70;;;;;;4973236;28;20039;-83
2021/10/27 08:22:31;;;;;;;11.13;5.40;;;15.20;90.90;;;;;;4975104;28;20059;-84
2021/10/27 08:24:57;;;;;;;12.27;6.57;;;15.30;90.00;;;;;;4974748;28;20757;-85
2021/10/27 08:27:23;;;;;;;8.13;5.30;;;15.40;89.40;;;;;;4975198;28;20063;-84
2021/10/27 08:29:50;;;;;;;10.50;5.53;;;15.40;90.20;;;;;;4974503;28;20023;-85
2021/10/27 08:34:53;;;;;;;8.95;5.63;;;15.50;89.30;;;;;;4972636;28;20023;-85
2021/10/27 08:37:22;;;;;;;5.78;5.18;;;15.50;89.30;;;;;;4975275;28;20744;-85
2021/10/27 08:39:48;;;;;;;6.53;5.60;;;15.50;89.70;;;;;;4970405;28;20038;-86
2021/10/27 08:42:14;;;;;;;7.05;5.35;;;15.50;89.70;;;;;;4989491;28;20026;-85
2021/10/27 08:44:42;;;;;;;12.10;6.05;;;15.60;90.40;;;;;;4972291;28;20062;-85
2021/10/27 08:47:08;;;;;;;9.27;5.45;;;15.70;88.00;;;;;;4972465;28;20037;-84
2021/10/27 08:49:34;;;;;;;9.43;5.50;;;15.80;88.30;;;;;;4973600;28;20480;-83
2021/10/27 08:52:04;;;;;;;9.93;4.85;;;15.90;88.20;;;;;;4973397;28;20023;-85
2021/10/27 08:54:31;;;;;;;8.75;5.00;;;15.90;86.80;;;;;;4967401;28;20030;-84
2021/10/27 08:57:01;;;;;;;9.10;5.28;;;16.00;86.70;;;;;;4972578;28;20023;-83
2021/10/27 09:07:30;;;;;;;7.78;5.38;;;16.30;85.20;;;;;;4971694;28;20026;-85
2021/10/27 10:05:10;;;;;;;10.88;3.17;;;17.30;77.60;;;;;;4970732;28;20038;-77
2021/10/27 10:07:36;;;;;;;4.22;3.00;;;17.50;78.00;;;;;;4984358;28;20134;-75
2021/10/27 10:10:04;;;;;;;5.35;2.90;;;18.10;75.90;;;;;;4961407;28;20028;-76
2021/10/27 10:12:40;;;;;;;4.68;2.45;;;18.50;74.60;;;;;;4960940;28;20027;-76
2021/10/27 10:15:06;;;;;;;4.00;2.33;;;18.60;73.10;;;;;;4970060;28;20039;-78
2021/10/27 10:17:52;;;;;;;3.00;2.45;;;18.70;73.30;;;;;;4969002;28;20023;-80
2021/10/27 10:20:20;;;;;;;3.00;2.28;;;18.70;71.00;;;;;;4969821;28;20035;-78
2021/10/27 10:22:46;;;;;;;3.30;2.15;;;18.50;72.20;;;;;;4966106;28;20034;-77
2021/10/27 10:25:18;;;;;;;3.20;1.90;;;18.50;71.80;;;;;;4968120;28;20522;-76
2021/10/27 10:27:55;;;;;;;2.97;2.13;;;18.60;71.90;;;;;;4970122;28;20080;-78
2021/10/27 10:30:40;;;;;;;2.63;2.15;;;18.70;70.30;;;;;;4962821;28;20034;-81
2021/10/27 10:33:11;;;;;;;3.88;2.38;;;18.50;70.60;;;;;;4970209;28;20019;-82
2021/10/27 10:35:57;;;;;;;2.35;2.13;;;18.30;71.60;;;;;;4965660;28;20027;-82
2021/10/27 10:38:25;;;;;;;2.47;1.85;;;18.30;72.60;;;;;;4968756;28;20019;-80
2021/10/27 11:00:33;;;;;;;2.33;2.10;;;19.20;68.30;;;;;;4965612;28;20042;-87
2021/10/27 11:26:03;;;;;;;3.50;1.90;;;19.20;69.00;;;;;;4967654;28;20033;-82
2021/10/27 11:37:19;;;;;;;3.25;1.88;;;19.50;65.90;;;;;;4968349;28;20552;-78
2021/10/27 11:40:12;;;;;;;3.90;1.98;;;19.30;66.80;;;;;;4965146;28;20042;-81
2021/10/27 11:42:52;;;;;;;9.05;2.13;;;19.40;66.00;;;;;;4966901;28;20114;-78
2021/10/27 11:45:39;;;;;;;4.07;1.98;;;19.50;66.00;;;;;;4962019;28;20070;-80
2021/10/27 11:50:41;;;;;;;2.55;1.60;;;19.90;64.30;;;;;;4968740;28;20523;-80
2021/10/27 11:53:21;;;;;;;2.80;2.05;;;19.80;63.50;;;;;;4958638;28;20034;-79
2021/10/27 11:55:47;;;;;;;3.65;2.65;;;19.90;64.70;;;;;;4965307;28;20026;-82
2021/10/27 11:58:12;;;;;;;5.15;1.95;;;19.90;64.10;;;;;;4969571;28;20629;-79
2021/10/27 12:00:41;;;;;;;4.32;1.83;;;19.90;62.90;;;;;;4965588;28;20042;-85
2021/10/27 12:03:15;;;;;;;6.95;2.22;;;20.30;62.30;;;;;;4983927;28;20046;-81
2021/10/27 12:08:34;;;;;;;5.57;1.73;;;24.70;55.00;;;;;;4960356;28;20046;-81
2021/10/27 12:11:18;;;;;;;4.18;2.00;;;26.70;52.40;;;;;;4947500;28;20051;-81
2021/10/27 12:14:13;;;;;;;3.40;2.15;;;27.80;50.40;;;;;;4948638;28;20097;-78
2021/10/27 12:16:59;;;;;;;2.47;1.58;;;28.20;48.90;;;;;;4948609;28;20502;-80
2021/10/27 12:19:31;;;;;;;6.30;4.75;;;28.70;47.80;;;;;;4940752;28;20149;-80
2021/10/27 12:22:04;;;;;;;3.78;2.83;;;28.50;47.40;;;;;;4950658;28;20434;-82
2021/10/27 12:24:34;;;;;;;4.10;1.67;;;28.80;46.90;;;;;;4951759;28;20108;-81
2021/10/27 12:27:05;;;;;;;4.57;1.80;;;29.10;46.50;;;;;;4951287;28;20035;-82
2021/10/27 12:29:33;;;;;;;8.35;1.85;;;30.20;45.20;;;;;;4952222;28;20077;-84
2021/10/27 12:32:09;;;;;;;1.95;1.48;;;30.90;43.80;;;;;;4948038;28;20066;-81
2021/10/27 12:34:45;;;;;;;2.58;1.48;;;31.30;43.00;;;;;;4951676;28;20106;-82
2021/10/27 12:37:27;;;;;;;2.67;1.50;;;32.20;42.00;;;;;;4947612;28;20026;-81
2021/10/27 12:39:52;;;;;;;2.38;1.55;;;33.20;40.70;;;;;;4952522;28;20042;-85
2021/10/27 12:42:18;;;;;;;2.50;1.70;;;33.50;39.50;;;;;;4954372;28;20114;-80
2021/10/27 12:44:47;;;;;;;1.73;1.30;;;33.10;40.80;;;;;;4947489;28;20151;-83
2021/10/27 12:47:25;;;;;;;6.13;1.65;;;33.30;39.20;;;;;;4955559;28;20039;-82
2021/10/27 12:50:11;;;;;;;2.67;1.55;;;33.40;39.00;;;;;;4954845;28;20381;-85
2021/10/27 12:52:55;;;;;;;3.20;1.42;;;32.40;40.60;;;;;;4936666;29;20026;-83
2021/10/27 12:55:26;;;;;;;1.65;1.15;;;30.80;41.20;;;;;;4952467;28;20074;-81
2021/10/27 12:58:01;;;;;;;3.40;1.30;;;29.90;42.40;;;;;;4970047;28;20494;-80
2021/10/27 13:00:54;;;;;;;2.15;1.55;;;30.20;43.00;;;;;;4957275;28;20031;-79
2021/10/27 13:21:44;;;;;;;2.00;1.40;;;29.90;43.70;;;;;;4954344;28;20525;-83
2021/10/27 13:32:20;;;;;;;2.05;1.48;;;31.90;39.90;;;;;;4955451;28;20111;-80
2021/10/27 13:34:47;;;;;;;2.03;1.40;;;30.10;42.60;;;;;;4954507;28;20565;-82
2021/10/27 13:37:14;;;;;;;1.42;1.13;;;31.20;41.40;;;;;;4955036;28;20462;-81
2021/10/27 13:39:40;;;;;;;4.32;1.38;;;31.30;40.60;;;;;;4954411;28;20024;-81
2021/10/27 13:42:25;;;;;;;6.20;1.10;;;30.70;40.90;;;;;;4955215;28;20038;-83
2021/10/27 14:06:01;;;;;;;7.43;1.40;;;29.00;42.50;;;;;;4952924;28;20042;-82
2021/10/27 14:08:42;;;;;;;1.63;1.17;;;29.40;41.80;;;;;;4941467;29;20083;-83
2021/10/27 14:11:23;;;;;;;1.98;1.40;;;29.40;42.20;;;;;;4967982;28;20027;-79
2021/10/27 15:19:55;;;;;;;3.15;1.58;;;19.90;56.20;;;;;;4952966;28;20517;-83
2021/10/27 15:41:04;;;;;;;3.30;1.73;;;17.40;61.90;;;;;;4921180;28;20082;-82
2021/10/27 15:51:55;;;;;;;3.40;1.88;;;16.80;64.30;;;;;;4952786;28;20042;-83
2021/10/27 15:54:21;;;;;;;3.78;2.28;;;16.80;65.00;;;;;;4952716;28;20022;-80
2021/10/27 15:56:48;;;;;;;4.57;2.05;;;16.60;65.50;;;;;;4949019;28;20031;-80
2021/10/27 15:59:13;;;;;;;4.88;2.50;;;16.60;65.90;;;;;;4951298;28;20036;-82
2021/10/27 16:01:40;;;;;;;3.75;2.10;;;16.50;66.30;;;;;;4953126;28;20027;-81
2021/10/27 16:04:07;;;;;;;5.10;2.72;;;16.40;66.70;;;;;;4952087;28;20367;-85
2021/10/27 16:06:41;;;;;;;6.43;2.40;;;16.30;67.00;;;;;;4949653;28;20118;-79
2021/10/27 16:09:09;;;;;;;5.20;2.78;;;16.30;67.30;;;;;;4951480;28;20393;-79
2021/10/27 16:11:36;;;;;;;4.18;2.40;;;16.20;67.70;;;;;;4951369;28;20402;-80
2021/10/27 16:14:04;;;;;;;3.47;2.10;;;16.10;68.00;;;;;;4944586;28;20146;-78
2021/10/27 16:16:29;;;;;;;5.22;2.40;;;16.10;68.40;;;;;;4955898;28;20034;-79
2021/10/27 16:18:56;;;;;;;3.95;2.47;;;16.00;68.80;;;;;;4954535;28;20027;-78
2021/10/27 16:21:21;;;;;;;5.43;2.45;;;15.90;69.60;;;;;;4954124;28;20089;-80
2021/10/27 16:23:48;;;;;;;3.53;2.67;;;15.90;69.50;;;;;;4941098;28;20111;-79
2021/10/27 16:26:13;;;;;;;8.38;2.95;;;15.80;69.30;;;;;;4952112;28;20385;-79
2021/10/27 16:28:39;;;;;;;3.03;2.50;;;15.70;69.50;;;;;;4956287;28;20031;-79
2021/10/27 16:31:05;;;;;;;7.70;2.83;;;15.70;69.90;;;;;;4953693;28;20027;-80
2021/10/27 16:33:31;;;;;;;4.28;2.70;;;15.60;70.50;;;;;;4954043;28;20022;-78
2021/10/27 16:35:57;;;;;;;4.50;2.67;;;15.50;71.30;;;;;;4953795;28;20118;-81
2021/10/27 16:38:23;;;;;;;5.13;2.83;;;15.40;71.40;;;;;;4955812;28;20179;-79
2021/10/27 16:40:50;;;;;;;5.30;2.55;;;15.30;72.60;;;;;;4954165;28;20046;-82
2021/10/27 16:43:15;;;;;;;3.00;2.47;;;15.10;72.80;;;;;;4953561;28;20078;-80
2021/10/27 16:45:42;;;;;;;5.38;3.08;;;15.10;73.30;;;;;;4941770;28;20050;-78
2021/10/27 16:48:08;;;;;;;4.35;2.53;;;15.00;73.80;;;;;;4953374;28;20446;-78
2021/10/27 16:50:35;;;;;;;6.15;3.28;;;14.80;74.00;;;;;;4953758;28;20430;-82
2021/10/27 16:53:01;;;;;;;4.25;3.00;;;14.90;74.10;;;;;;4953667;28;20031;-80
2021/10/27 16:55:28;;;;;;;5.25;2.97;;;15.00;73.80;;;;;;4955072;28;20039;-79
2021/10/27 16:57:58;;;;;;;4.82;3.20;;;15.10;73.70;;;;;;4970033;28;20049;-82
2021/10/27 17:00:26;;;;;;;5.00;2.70;;;15.20;73.40;;;;;;4940898;28;20031;-81
2021/10/27 17:02:52;;;;;;;5.85;3.58;;;15.20;73.70;;;;;;4964848;28;20067;-77
2021/10/27 17:05:18;;;;;;;4.95;3.30;;;15.30;73.80;;;;;;4955087;28;20035;-78
2021/10/27 17:07:44;;;;;;;10.27;3.88;;;15.30;73.90;;;;;;4955264;28;20023;-81
2021/10/27 17:10:12;;;;;;;4.53;2.85;;;15.30;74.70;;;;;;4953371;28;20082;-82
2021/10/27 17:12:39;;;;;;;5.32;3.13;;;15.30;73.70;;;;;;4951010;28;20449;-79
2021/10/27 17:15:06;;;;;;;3.70;2.90;;;15.30;74.10;;;;;;4950964;28;20039;-79
2021/10/27 17:17:32;;;;;;;4.65;2.97;;;15.20;74.00;;;;;;4953738;28;20074;-77
2021/10/27 17:19:58;;;;;;;4.10;3.03;;;15.20;74.00;;;;;;4950699;28;20036;-79
2021/10/27 17:22:27;;;;;;;4.68;2.78;;;15.20;74.40;;;;;;4955280;28;20359;-82
2021/10/27 17:24:53;;;;;;;8.05;3.30;;;15.20;74.10;;;;;;4969068;28;20031;-81
2021/10/27 17:27:21;;;;;;;3.60;2.42;;;15.20;74.40;;;;;;4963076;28;20054;-79
2021/10/27 17:29:47;;;;;;;4.90;2.97;;;15.20;74.60;;;;;;4958629;28;20031;-78
2021/10/27 17:32:13;;;;;;;4.10;2.92;;;15.20;74.40;;;;;;4954720;28;20019;-78
2021/10/27 17:34:38;;;;;;;4.07;3.00;;;15.20;74.70;;;;;;4953353;28;20031;-78
2021/10/27 17:37:04;;;;;;;10.27;3.17;;;15.10;74.70;;;;;;4955119;28;20466;-78
2021/10/27 17:39:30;;;;;;;6.88;3.35;;;15.10;75.20;;;;;;4952925;28;20050;-78
2021/10/27 17:41:58;;;;;;;10.05;3.05;;;15.10;75.00;;;;;;4950300;28;20023;-80
2021/10/27 17:44:25;;;;;;;6.63;3.55;;;15.10;75.10;;;;;;4952078;28;20054;-79
2021/10/27 17:46:56;;;;;;;8.32;3.40;;;15.10;75.60;;;;;;4954884;28;20174;-79
2021/10/27 17:52:46;;;;;;;5.28;3.35;;;15.00;75.80;;;;;;4947108;28;20027;-79